Time;durP1;ratioP1;P1;durP2;ratioP2;P2;SDS_P1;SDS_P2;PMS_P1;PMS_P2;Temp;Humidity;BMP_temperature;BMP_pressure;BME280_temperature;BME280_humidity;BME280_pressure;Samples;Min_cycle;Max_cycle;Signal;HPM_P1;HPM_P2
2021/10/15 00:00:20;;;;;;;6.65;2.83;;;7.80;97.70;;;;;;5092186;28;20070;-74
2021/10/15 00:02:46;;;;;;;5.18;2.50;;;7.80;97.60;;;;;;5083862;28;20020;-74
2021/10/15 00:05:11;;;;;;;4.20;2.25;;;7.70;97.80;;;;;;5085170;28;20032;-74
2021/10/15 00:07:37;;;;;;;4.95;1.80;;;7.60;98.10;;;;;;5089255;28;20469;-74
2021/10/15 00:10:04;;;;;;;5.82;2.42;;;7.80;97.70;;;;;;5089893;28;20613;-74
2021/10/15 00:12:30;;;;;;;7.05;2.85;;;7.70;97.80;;;;;;5089498;28;20131;-74
2021/10/15 00:14:56;;;;;;;4.57;2.28;;;7.70;97.80;;;;;;5090012;28;20116;-74
2021/10/15 00:17:22;;;;;;;5.78;2.35;;;7.80;97.60;;;;;;5089532;28;20020;-74
2021/10/15 00:19:47;;;;;;;6.50;2.90;;;7.90;97.50;;;;;;5090102;28;20024;-74
2021/10/15 00:22:13;;;;;;;5.95;2.47;;;7.90;97.20;;;;;;5088846;28;20032;-74
2021/10/15 00:24:39;;;;;;;9.05;2.75;;;7.90;97.20;;;;;;5091500;28;20035;-74
2021/10/15 00:27:04;;;;;;;4.97;2.50;;;7.70;97.60;;;;;;5091030;28;20475;-74
2021/10/15 00:29:30;;;;;;;7.72;3.28;;;7.80;97.70;;;;;;5091397;28;20024;-74
2021/10/15 00:31:56;;;;;;;5.28;2.60;;;7.80;97.50;;;;;;5091124;28;20019;-74
2021/10/15 00:34:22;;;;;;;4.68;2.20;;;7.70;97.90;;;;;;5091219;28;20036;-74
2021/10/15 00:36:47;;;;;;;4.43;2.58;;;7.50;98.30;;;;;;5091087;28;20385;-73
2021/10/15 00:39:14;;;;;;;6.15;2.47;;;7.30;98.70;;;;;;5091098;28;20036;-74
2021/10/15 00:41:39;;;;;;;5.32;2.50;;;7.10;99.30;;;;;;5091304;28;20031;-74
2021/10/15 00:44:10;;;;;;;6.07;2.38;;;7.20;99.20;;;;;;5090541;28;20579;-74
2021/10/15 00:46:37;;;;;;;6.53;2.78;;;7.30;99.00;;;;;;5091768;28;20036;-74
2021/10/15 00:49:05;;;;;;;5.53;2.38;;;7.40;98.70;;;;;;5090739;28;20059;-74
2021/10/15 00:51:32;;;;;;;5.00;2.45;;;7.20;99.20;;;;;;5091453;28;20067;-74
2021/10/15 00:53:58;;;;;;;5.93;2.60;;;7.20;99.20;;;;;;5090432;28;20048;-74
2021/10/15 00:56:24;;;;;;;6.18;2.35;;;7.00;99.60;;;;;;5091403;28;20099;-74
2021/10/15 00:58:50;;;;;;;5.70;2.25;;;6.90;99.80;;;;;;5090870;28;20024;-74
2021/10/15 01:01:16;;;;;;;6.65;2.88;;;6.80;99.90;;;;;;5090704;28;20104;-74
2021/10/15 01:03:42;;;;;;;5.30;2.60;;;6.80;99.90;;;;;;5078563;28;20631;-74
2021/10/15 01:06:08;;;;;;;6.55;2.45;;;6.90;99.90;;;;;;5074619;28;20036;-74
2021/10/15 01:08:41;;;;;;;4.88;2.38;;;6.90;99.80;;;;;;5088445;28;20494;-74
2021/10/15 01:11:07;;;;;;;5.82;2.45;;;7.00;99.70;;;;;;5073876;28;20482;-74
2021/10/15 01:13:33;;;;;;;4.43;2.58;;;7.00;99.60;;;;;;5088954;28;20047;-74
2021/10/15 01:16:07;;;;;;;7.28;2.58;;;7.10;99.40;;;;;;5089430;28;20032;-74
2021/10/15 01:18:33;;;;;;;4.90;2.08;;;7.00;99.40;;;;;;5088959;28;20024;-73
2021/10/15 01:20:59;;;;;;;4.78;2.15;;;7.00;99.60;;;;;;5088140;28;20024;-74
2021/10/15 01:23:25;;;;;;;7.38;2.72;;;7.00;99.60;;;;;;5089996;28;20595;-74
2021/10/15 01:25:53;;;;;;;5.32;2.50;;;6.90;99.60;;;;;;5092773;28;20080;-74
2021/10/15 01:28:20;;;;;;;4.20;2.25;;;6.80;99.90;;;;;;5094254;28;20031;-74
2021/10/15 01:30:46;;;;;;;5.15;2.35;;;6.90;99.80;;;;;;5095091;28;20023;-74
2021/10/15 01:33:13;;;;;;;16.05;2.50;;;6.90;99.80;;;;;;5094519;28;20096;-74
2021/10/15 01:35:39;;;;;;;4.97;2.53;;;6.70;99.90;;;;;;5094288;28;20024;-74
2021/10/15 01:38:04;;;;;;;7.18;2.78;;;6.90;99.90;;;;;;5083819;28;20394;-74
2021/10/15 01:40:30;;;;;;;5.18;2.40;;;7.00;99.90;;;;;;5094783;28;20032;-74
2021/10/15 01:42:56;;;;;;;6.55;3.22;;;7.00;99.90;;;;;;5094260;28;20032;-74
2021/10/15 01:45:27;;;;;;;4.70;2.20;;;6.90;99.80;;;;;;5095002;28;20382;-74
2021/10/15 01:47:54;;;;;;;7.82;2.45;;;7.10;99.70;;;;;;5094603;28;20046;-74
2021/10/15 01:50:22;;;;;;;7.55;2.78;;;7.00;99.90;;;;;;5093360;28;20032;-73
2021/10/15 01:52:48;;;;;;;5.88;2.92;;;6.90;99.90;;;;;;5094373;28;20030;-74
2021/10/15 01:55:14;;;;;;;5.65;2.20;;;6.90;99.90;;;;;;5094028;28;20035;-74
2021/10/15 01:57:40;;;;;;;6.80;2.10;;;6.60;99.90;;;;;;5094473;28;20020;-74
2021/10/15 02:00:08;;;;;;;4.93;2.28;;;6.40;99.90;;;;;;5094123;28;20378;-74
2021/10/15 02:02:34;;;;;;;6.18;2.90;;;6.30;99.90;;;;;;5093622;28;20490;-73
2021/10/15 02:05:00;;;;;;;4.90;2.42;;;6.30;99.90;;;;;;5089445;28;20069;-74
2021/10/15 02:07:26;;;;;;;6.18;2.17;;;6.30;99.90;;;;;;5092657;28;20099;-74
2021/10/15 02:09:52;;;;;;;5.97;2.22;;;6.40;99.90;;;;;;5083387;28;20540;-74
2021/10/15 02:12:17;;;;;;;6.45;2.65;;;6.60;99.90;;;;;;5092303;28;20089;-74
2021/10/15 02:14:43;;;;;;;7.50;3.03;;;6.60;99.90;;;;;;5091774;28;20066;-74
2021/10/15 02:17:09;;;;;;;6.88;2.95;;;6.60;99.90;;;;;;5091613;28;20505;-74
2021/10/15 02:19:35;;;;;;;5.03;2.47;;;6.40;99.90;;;;;;5092151;28;20024;-74
2021/10/15 02:22:01;;;;;;;4.93;2.40;;;6.50;99.90;;;;;;5091739;28;20099;-74
2021/10/15 02:24:26;;;;;;;4.63;2.25;;;6.50;99.90;;;;;;5093665;28;20024;-74
2021/10/15 02:26:52;;;;;;;4.80;2.45;;;6.50;99.90;;;;;;5075520;28;20024;-74
2021/10/15 02:29:18;;;;;;;4.90;2.42;;;6.60;99.90;;;;;;5093318;28;20112;-74
2021/10/15 02:31:44;;;;;;;6.28;2.63;;;6.60;99.90;;;;;;5094022;28;20488;-74
2021/10/15 02:34:10;;;;;;;5.43;2.78;;;6.60;99.90;;;;;;5093386;28;20401;-74
2021/10/15 02:36:35;;;;;;;13.95;3.60;;;6.50;99.90;;;;;;5092679;28;20111;-74
2021/10/15 02:39:02;;;;;;;5.88;2.63;;;6.40;99.90;;;;;;5093673;28;20099;-74
2021/10/15 02:41:27;;;;;;;4.97;2.78;;;6.30;99.90;;;;;;5093636;28;20028;-74
2021/10/15 02:43:53;;;;;;;5.95;2.75;;;6.20;99.90;;;;;;5093262;28;20106;-74
2021/10/15 02:46:19;;;;;;;4.13;2.42;;;6.20;99.90;;;;;;5093286;28;20028;-74
2021/10/15 02:48:45;;;;;;;5.47;2.70;;;6.10;99.90;;;;;;5092959;28;20051;-74
2021/10/15 02:51:11;;;;;;;5.80;2.72;;;6.00;99.90;;;;;;5092978;28;20035;-74
2021/10/15 02:53:38;;;;;;;5.00;2.50;;;6.00;99.90;;;;;;5093452;28;20405;-74
2021/10/15 02:56:04;;;;;;;4.60;2.47;;;6.10;99.90;;;;;;5093088;28;20428;-74
2021/10/15 02:58:30;;;;;;;5.60;3.22;;;6.10;99.90;;;;;;5092537;28;20030;-73
2021/10/15 03:00:57;;;;;;;5.30;2.22;;;6.00;99.90;;;;;;5093013;28;20390;-73
2021/10/15 03:03:22;;;;;;;6.32;2.50;;;6.10;99.90;;;;;;5079085;28;20484;-73
2021/10/15 03:05:48;;;;;;;4.50;2.17;;;6.10;99.90;;;;;;5078192;28;20206;-73
2021/10/15 03:08:14;;;;;;;5.88;2.67;;;6.10;99.90;;;;;;5084213;28;20048;-73
2021/10/15 03:10:40;;;;;;;4.97;2.50;;;6.30;99.90;;;;;;5084178;28;20050;-73
2021/10/15 03:13:06;;;;;;;5.50;2.78;;;6.30;99.90;;;;;;5083250;28;20106;-73
2021/10/15 03:15:31;;;;;;;6.05;3.05;;;6.30;99.90;;;;;;5083497;28;20497;-73
2021/10/15 03:17:57;;;;;;;4.03;2.08;;;6.40;99.90;;;;;;5083160;28;20055;-73
2021/10/15 03:20:23;;;;;;;5.38;2.53;;;6.30;99.90;;;;;;5084236;28;20119;-73
2021/10/15 03:22:49;;;;;;;8.27;2.88;;;6.20;99.90;;;;;;5085242;28;20036;-73
2021/10/15 03:25:15;;;;;;;4.65;1.88;;;6.10;99.90;;;;;;5088410;28;20068;-73
2021/10/15 03:27:40;;;;;;;5.75;2.05;;;6.10;99.90;;;;;;5087869;28;20069;-73
2021/10/15 03:30:07;;;;;;;6.97;2.72;;;6.10;99.90;;;;;;5088150;28;20070;-73
2021/10/15 03:32:33;;;;;;;6.57;3.20;;;5.90;99.90;;;;;;5088245;28;20111;-73
2021/10/15 03:34:59;;;;;;;5.13;2.72;;;5.80;99.90;;;;;;5084897;28;20186;-73
2021/10/15 03:37:25;;;;;;;6.75;3.45;;;5.80;99.90;;;;;;5085523;28;20023;-73
2021/10/15 03:39:51;;;;;;;5.75;2.47;;;5.80;99.90;;;;;;5087501;28;20047;-72
2021/10/15 03:42:17;;;;;;;5.53;3.05;;;6.00;99.90;;;;;;5087804;28;20020;-72
2021/10/15 03:44:43;;;;;;;5.88;2.47;;;6.00;99.90;;;;;;5088182;28;20986;-73
2021/10/15 03:47:10;;;;;;;6.93;2.40;;;5.90;99.90;;;;;;5087344;28;20032;-73
2021/10/15 03:49:36;;;;;;;12.32;2.90;;;5.80;99.90;;;;;;5085952;28;20024;-73
2021/10/15 03:52:01;;;;;;;5.07;2.40;;;5.80;99.90;;;;;;5084491;28;20974;-73
2021/10/15 03:54:27;;;;;;;5.10;2.78;;;5.60;99.90;;;;;;5085314;28;20710;-73
2021/10/15 03:56:53;;;;;;;6.47;2.80;;;5.60;99.90;;;;;;5087937;28;20055;-73
2021/10/15 03:59:19;;;;;;;7.57;2.88;;;5.60;99.90;;;;;;5084700;28;22162;-72
2021/10/15 04:01:44;;;;;;;6.25;2.92;;;5.60;99.90;;;;;;5084842;28;20047;-73
2021/10/15 04:04:10;;;;;;;6.70;2.50;;;5.70;99.90;;;;;;5084326;28;20630;-73
2021/10/15 04:06:36;;;;;;;6.95;3.03;;;5.70;99.90;;;;;;5077034;28;20632;-73
2021/10/15 04:09:02;;;;;;;5.50;2.97;;;5.70;99.90;;;;;;5083664;28;20055;-72
2021/10/15 04:11:28;;;;;;;8.07;4.88;;;5.70;99.90;;;;;;5082376;28;20036;-73
2021/10/15 04:13:54;;;;;;;9.48;5.28;;;5.50;99.90;;;;;;5083041;28;20043;-73
2021/10/15 04:16:19;;;;;;;8.68;4.50;;;5.60;99.90;;;;;;5082788;28;20035;-72
2021/10/15 04:18:45;;;;;;;7.50;3.55;;;5.60;99.90;;;;;;5082934;28;20099;-73
2021/10/15 04:21:11;;;;;;;5.35;2.67;;;5.70;99.90;;;;;;5081403;28;20020;-73
2021/10/15 04:23:36;;;;;;;6.28;2.83;;;5.70;99.90;;;;;;5082363;28;20028;-73
2021/10/15 04:26:02;;;;;;;10.75;3.13;;;5.60;99.90;;;;;;5083283;28;20103;-73
2021/10/15 04:28:28;;;;;;;6.07;2.60;;;5.60;99.90;;;;;;5084021;28;20031;-73
2021/10/15 04:30:54;;;;;;;5.35;2.78;;;5.80;99.90;;;;;;5084012;28;20382;-73
2021/10/15 04:33:19;;;;;;;6.63;2.90;;;5.80;99.90;;;;;;5084030;28;20401;-72
2021/10/15 04:35:45;;;;;;;6.40;2.90;;;5.80;99.90;;;;;;5084057;28;20026;-73
2021/10/15 04:38:11;;;;;;;6.55;3.00;;;5.60;99.90;;;;;;5083929;28;20436;-73
2021/10/15 04:40:37;;;;;;;4.90;2.55;;;5.70;99.90;;;;;;5084628;28;20445;-72
2021/10/15 04:43:03;;;;;;;6.68;3.00;;;5.60;99.90;;;;;;5082878;28;20119;-73
2021/10/15 04:45:29;;;;;;;4.97;2.30;;;5.40;99.90;;;;;;5084004;28;20043;-72
2021/10/15 04:47:55;;;;;;;6.82;2.88;;;5.40;99.90;;;;;;5083540;28;20024;-73
2021/10/15 04:50:21;;;;;;;5.20;2.45;;;5.40;99.90;;;;;;5084051;28;20031;-72
2021/10/15 04:52:46;;;;;;;5.72;2.38;;;5.40;99.90;;;;;;5082865;28;20108;-73
2021/10/15 04:55:12;;;;;;;6.68;2.60;;;5.50;99.90;;;;;;5084178;28;20068;-72
2021/10/15 04:57:38;;;;;;;9.13;3.30;;;5.50;99.90;;;;;;5083540;28;20032;-73
2021/10/15 05:00:08;;;;;;;5.57;3.15;;;5.50;99.90;;;;;;5084065;28;20952;-72
2021/10/15 05:02:41;;;;;;;7.80;2.67;;;5.50;99.90;;;;;;5083270;28;20097;-73
2021/10/15 05:05:08;;;;;;;7.82;3.22;;;5.50;99.90;;;;;;5073216;28;20032;-73
2021/10/15 05:07:38;;;;;;;9.00;2.70;;;5.50;99.90;;;;;;5079321;28;20020;-73
2021/10/15 05:10:05;;;;;;;6.40;3.05;;;5.40;99.90;;;;;;5082521;28;20044;-73
2021/10/15 05:12:31;;;;;;;5.75;2.75;;;5.30;99.90;;;;;;5081567;28;20032;-72
2021/10/15 05:14:57;;;;;;;7.80;2.20;;;5.30;99.90;;;;;;5081305;28;20087;-73
2021/10/15 05:17:22;;;;;;;5.63;3.30;;;5.20;99.90;;;;;;5081420;28;20458;-73
2021/10/15 05:19:48;;;;;;;7.32;3.25;;;5.30;99.90;;;;;;5082230;28;20224;-73
2021/10/15 05:22:14;;;;;;;6.55;3.03;;;5.40;99.90;;;;;;5081368;28;20047;-73
2021/10/15 05:24:40;;;;;;;7.75;3.75;;;5.50;99.90;;;;;;5082154;28;20032;-73
2021/10/15 05:27:06;;;;;;;7.15;3.67;;;5.40;99.90;;;;;;5077967;28;20089;-72
2021/10/15 05:29:31;;;;;;;7.93;3.35;;;5.60;99.90;;;;;;5078437;28;20016;-73
2021/10/15 05:31:57;;;;;;;9.52;3.85;;;5.60;99.90;;;;;;5081642;28;20031;-73
2021/10/15 05:34:23;;;;;;;6.38;2.78;;;5.40;99.90;;;;;;5071665;28;20036;-74
2021/10/15 05:36:49;;;;;;;6.88;3.92;;;5.40;99.90;;;;;;5079234;28;20636;-73
2021/10/15 05:39:15;;;;;;;7.07;3.72;;;5.40;99.90;;;;;;5064448;28;20369;-73
2021/10/15 05:41:41;;;;;;;6.90;2.90;;;5.40;99.90;;;;;;5085090;28;20028;-74
2021/10/15 05:44:06;;;;;;;5.55;2.88;;;5.70;99.90;;;;;;5084523;28;20607;-73
2021/10/15 05:46:32;;;;;;;5.40;2.53;;;5.70;99.90;;;;;;5084528;28;20027;-73
2021/10/15 05:48:58;;;;;;;4.47;2.65;;;5.60;99.90;;;;;;5084405;28;20106;-73
2021/10/15 05:51:25;;;;;;;5.45;2.55;;;5.40;99.90;;;;;;5084897;28;20031;-73
2021/10/15 05:53:54;;;;;;;5.90;3.17;;;5.30;99.90;;;;;;5086552;28;20027;-73
2021/10/15 05:56:45;;;;;;;6.30;2.95;;;5.20;99.90;;;;;;5086909;28;20044;-73
2021/10/15 05:59:12;;;;;;;6.63;2.80;;;5.20;99.90;;;;;;5085923;28;20134;-73
2021/10/15 06:01:38;;;;;;;5.13;2.80;;;5.30;99.90;;;;;;5086591;28;20180;-73
2021/10/15 06:14:46;;;;;;;6.43;2.85;;;5.40;99.90;;;;;;5089256;28;20055;-73
2021/10/15 06:17:12;;;;;;;5.28;2.53;;;5.60;99.90;;;;;;5089733;28;20024;-73
2021/10/15 06:22:13;;;;;;;4.63;2.22;;;5.60;99.90;;;;;;5089419;28;20113;-74
2021/10/15 06:24:39;;;;;;;5.10;2.42;;;5.50;99.90;;;;;;5089889;28;20470;-74
2021/10/15 06:27:05;;;;;;;8.13;2.85;;;5.40;99.90;;;;;;5089555;28;20107;-74
2021/10/15 06:29:30;;;;;;;6.82;2.65;;;5.30;99.90;;;;;;5089046;28;20027;-73
2021/10/15 06:31:56;;;;;;;6.53;3.33;;;5.40;99.90;;;;;;5089279;28;20099;-74
2021/10/15 06:34:22;;;;;;;8.32;3.50;;;5.40;99.90;;;;;;5087501;28;20123;-73
2021/10/15 06:36:47;;;;;;;5.88;2.67;;;5.20;99.90;;;;;;5089376;28;20048;-73
2021/10/15 06:39:13;;;;;;;6.63;2.85;;;5.30;99.90;;;;;;5087653;28;20020;-73
2021/10/15 06:41:39;;;;;;;5.78;2.92;;;5.50;99.90;;;;;;5093386;28;20031;-73
2021/10/15 06:44:05;;;;;;;5.25;2.45;;;5.40;99.90;;;;;;5087262;28;20024;-74
2021/10/15 06:46:31;;;;;;;6.28;2.75;;;5.30;99.90;;;;;;5084881;28;20028;-74
2021/10/15 06:48:56;;;;;;;5.82;2.85;;;5.20;99.90;;;;;;5084657;28;20163;-74
2021/10/15 06:51:22;;;;;;;4.78;2.50;;;5.30;99.90;;;;;;5084474;28;20692;-74
2021/10/15 06:53:48;;;;;;;6.82;3.38;;;5.50;99.90;;;;;;5085351;28;20047;-74
2021/10/15 06:56:13;;;;;;;5.25;3.13;;;5.40;99.90;;;;;;5085338;28;20470;-74
2021/10/15 06:58:39;;;;;;;5.90;3.03;;;5.40;99.90;;;;;;5086410;28;20047;-74
2021/10/15 07:01:05;;;;;;;5.78;3.47;;;5.30;99.90;;;;;;5051261;28;20020;-74
2021/10/15 07:03:31;;;;;;;7.68;3.65;;;5.30;99.90;;;;;;5086155;28;20020;-74
2021/10/15 07:05:57;;;;;;;7.00;3.85;;;5.30;99.90;;;;;;5085396;28;20031;-74
2021/10/15 07:08:24;;;;;;;8.90;3.60;;;5.30;99.90;;;;;;5084905;28;20044;-74
2021/10/15 07:10:49;;;;;;;13.20;6.68;;;5.30;99.90;;;;;;5085325;28;20024;-74
2021/10/15 07:13:15;;;;;;;10.93;7.07;;;5.30;99.90;;;;;;5084745;28;20051;-74
2021/10/15 07:15:46;;;;;;;8.30;5.47;;;5.20;99.90;;;;;;5086231;28;20031;-75
2021/10/15 07:18:12;;;;;;;9.52;4.63;;;5.40;99.90;;;;;;5086055;28;20028;-74
2021/10/15 07:20:38;;;;;;;7.03;4.25;;;5.60;99.90;;;;;;5086692;28;20471;-74
2021/10/15 07:23:05;;;;;;;8.00;3.90;;;5.50;99.90;;;;;;5084448;28;20031;-74
2021/10/15 07:25:31;;;;;;;7.65;3.45;;;5.60;99.90;;;;;;5085707;28;20054;-74
2021/10/15 07:27:56;;;;;;;5.25;3.15;;;5.60;99.90;;;;;;5084890;28;20039;-74
2021/10/15 07:30:22;;;;;;;6.22;3.65;;;5.70;99.90;;;;;;5085934;28;20840;-74
2021/10/15 07:32:52;;;;;;;6.20;2.83;;;5.70;99.90;;;;;;5085725;28;20483;-74
2021/10/15 07:35:19;;;;;;;4.00;2.13;;;5.80;99.90;;;;;;5075710;28;20494;-74
2021/10/15 07:37:44;;;;;;;4.65;2.35;;;5.80;99.90;;;;;;5072029;28;20024;-74
2021/10/15 07:40:11;;;;;;;4.22;2.10;;;5.70;99.90;;;;;;5082475;28;20043;-74
2021/10/15 07:42:37;;;;;;;6.63;3.25;;;5.80;99.90;;;;;;5080437;28;20485;-74
2021/10/15 07:45:04;;;;;;;6.15;2.92;;;5.90;99.90;;;;;;5083531;28;20028;-74
2021/10/15 07:47:30;;;;;;;4.78;2.17;;;6.00;99.90;;;;;;5083270;28;20695;-74
2021/10/15 07:49:55;;;;;;;6.25;2.25;;;6.00;99.90;;;;;;5078833;28;20119;-74
2021/10/15 07:52:22;;;;;;;5.32;2.15;;;5.90;99.90;;;;;;5082327;28;20031;-74
2021/10/15 07:54:48;;;;;;;4.45;2.53;;;6.00;99.90;;;;;;5083770;28;20028;-75
2021/10/15 07:57:14;;;;;;;7.72;2.40;;;6.10;99.90;;;;;;5084891;28;20031;-74
2021/10/15 07:59:40;;;;;;;7.68;2.50;;;6.00;99.90;;;;;;5084947;28;20024;-74
2021/10/15 08:02:07;;;;;;;6.55;2.40;;;6.10;99.90;;;;;;5082856;28;20595;-74
2021/10/15 08:04:33;;;;;;;6.07;2.35;;;6.20;99.90;;;;;;5084364;28;20024;-74
2021/10/15 08:06:58;;;;;;;6.03;3.17;;;6.40;99.90;;;;;;5084248;28;20032;-74
2021/10/15 08:09:24;;;;;;;9.50;3.67;;;6.50;99.90;;;;;;5081622;28;20040;-74
2021/10/15 08:11:51;;;;;;;5.47;2.58;;;6.40;99.90;;;;;;5083709;28;20082;-74
2021/10/15 08:14:18;;;;;;;6.53;3.08;;;6.60;99.90;;;;;;5086929;28;20177;-74
2021/10/15 08:16:44;;;;;;;7.78;2.20;;;6.90;99.90;;;;;;5087662;28;20027;-74
2021/10/15 08:19:10;;;;;;;5.28;2.50;;;7.00;99.90;;;;;;5087384;28;20012;-74
2021/10/15 08:21:36;;;;;;;5.60;2.05;;;7.10;99.90;;;;;;5087167;28;20165;-74
2021/10/15 08:24:01;;;;;;;4.55;2.05;;;7.20;99.90;;;;;;5086723;28;20032;-74
2021/10/15 08:26:27;;;;;;;4.88;2.40;;;7.30;99.90;;;;;;5086758;28;20016;-74
2021/10/15 08:28:58;;;;;;;5.25;2.15;;;7.30;99.90;;;;;;5087085;28;20036;-74
2021/10/15 08:31:24;;;;;;;4.43;2.70;;;7.30;99.90;;;;;;5066434;28;20020;-74
2021/10/15 08:33:50;;;;;;;5.70;2.22;;;7.40;99.90;;;;;;5084683;28;20036;-75
2021/10/15 08:36:15;;;;;;;7.50;2.55;;;7.40;99.90;;;;;;5078273;28;20031;-74
2021/10/15 08:38:41;;;;;;;9.10;2.20;;;7.40;99.90;;;;;;5084343;28;20604;-74
2021/10/15 08:41:07;;;;;;;5.38;2.65;;;7.60;99.90;;;;;;5084693;28;20107;-74
2021/10/15 08:43:39;;;;;;;9.25;2.58;;;7.70;99.90;;;;;;5085166;28;20047;-74
2021/10/15 08:46:05;;;;;;;10.60;2.72;;;7.70;99.90;;;;;;5084004;28;20067;-74
2021/10/15 08:48:32;;;;;;;5.07;2.35;;;7.70;99.90;;;;;;5084752;28;20035;-74
2021/10/15 08:50:57;;;;;;;9.60;2.80;;;7.70;99.70;;;;;;5083749;28;20107;-74
2021/10/15 08:53:24;;;;;;;4.35;1.90;;;7.80;99.60;;;;;;5084308;28;20457;-75
2021/10/15 08:55:50;;;;;;;3.33;1.92;;;7.80;99.20;;;;;;5083105;28;20020;-74
2021/10/15 08:58:16;;;;;;;4.47;2.13;;;7.90;98.80;;;;;;5086520;28;20107;-74
2021/10/15 09:00:41;;;;;;;4.50;2.00;;;8.00;99.10;;;;;;5086061;28;20099;-74
2021/10/15 09:03:20;;;;;;;4.60;2.35;;;8.10;99.20;;;;;;5086494;28;20028;-73
2021/10/15 09:06:00;;;;;;;5.30;2.50;;;8.20;99.00;;;;;;5083639;28;20098;-74
2021/10/15 09:08:42;;;;;;;4.57;2.17;;;8.40;99.40;;;;;;5083872;28;20097;-74
2021/10/15 09:11:28;;;;;;;6.75;2.72;;;8.30;98.30;;;;;;5084129;28;20651;-74
2021/10/15 09:14:23;;;;;;;6.07;2.28;;;8.40;98.90;;;;;;5085463;28;20077;-74
2021/10/15 09:17:12;;;;;;;4.47;2.13;;;8.50;98.30;;;;;;5085461;28;20966;-74
2021/10/15 09:19:40;;;;;;;4.63;2.38;;;8.40;98.10;;;;;;5084689;28;20031;-73
2021/10/15 09:22:20;;;;;;;4.72;2.10;;;8.40;98.30;;;;;;5085418;28;20020;-73
2021/10/15 09:25:08;;;;;;;4.18;1.92;;;8.40;98.30;;;;;;5080861;28;20420;-74
2021/10/15 09:27:43;;;;;;;6.13;2.20;;;8.50;98.10;;;;;;5081829;28;20026;-74
2021/10/15 09:30:11;;;;;;;5.63;2.25;;;8.40;98.00;;;;;;5073670;28;20028;-74
2021/10/15 09:32:40;;;;;;;4.60;2.33;;;8.50;97.60;;;;;;5083361;28;20043;-74
2021/10/15 09:35:09;;;;;;;6.03;1.77;;;8.50;97.80;;;;;;5083113;28;20051;-74
2021/10/15 09:37:39;;;;;;;4.75;2.40;;;8.60;97.80;;;;;;5081477;28;20103;-74
2021/10/15 09:40:04;;;;;;;4.68;2.15;;;8.80;97.60;;;;;;5082315;28;20036;-74
2021/10/15 09:42:32;;;;;;;4.90;2.05;;;8.90;97.80;;;;;;5081542;28;20077;-74
2021/10/15 09:45:12;;;;;;;5.22;3.13;;;8.90;97.70;;;;;;5063056;28;20020;-74
2021/10/15 09:47:38;;;;;;;4.65;2.28;;;9.00;97.40;;;;;;5082373;28;20494;-74
2021/10/15 09:50:06;;;;;;;6.53;2.40;;;9.10;97.00;;;;;;5084519;28;20020;-74
2021/10/15 09:52:45;;;;;;;5.90;1.83;;;9.20;97.40;;;;;;5084165;28;20034;-74
2021/10/15 09:55:16;;;;;;;6.10;1.95;;;9.40;97.90;;;;;;5084819;28;20065;-74
2021/10/15 09:57:44;;;;;;;4.18;2.05;;;9.30;96.90;;;;;;5086113;28;20034;-74
2021/10/15 10:00:16;;;;;;;5.60;2.22;;;9.30;96.60;;;;;;5086242;28;20027;-74
2021/10/15 10:02:43;;;;;;;6.25;2.40;;;9.30;96.50;;;;;;5083227;28;20024;-73
2021/10/15 10:05:12;;;;;;;4.72;2.70;;;9.40;96.60;;;;;;5083537;28;20039;-74
2021/10/15 10:07:41;;;;;;;5.22;2.25;;;9.70;96.80;;;;;;5084879;28;20016;-74
2021/10/15 10:10:09;;;;;;;5.10;1.98;;;10.00;96.70;;;;;;5084243;28;20036;-74
2021/10/15 10:12:36;;;;;;;4.63;2.50;;;10.00;96.10;;;;;;5085757;28;20076;-74
2021/10/15 10:15:05;;;;;;;5.68;2.10;;;10.10;96.60;;;;;;5085685;28;20047;-74
2021/10/15 10:17:36;;;;;;;5.75;2.00;;;10.20;95.60;;;;;;5085731;28;20039;-74
2021/10/15 10:20:07;;;;;;;5.07;2.25;;;10.30;95.90;;;;;;5086231;28;20016;-74
2021/10/15 10:22:34;;;;;;;6.05;2.25;;;10.40;95.60;;;;;;5085762;28;20607;-74
2021/10/15 10:25:01;;;;;;;6.07;2.03;;;10.50;95.80;;;;;;5085684;28;20028;-74
2021/10/15 10:27:32;;;;;;;5.40;2.45;;;10.60;95.40;;;;;;5084453;28;20047;-74
2021/10/15 10:29:59;;;;;;;5.78;2.50;;;10.40;95.30;;;;;;5086237;28;20500;-74
2021/10/15 10:32:26;;;;;;;5.53;2.60;;;10.50;95.20;;;;;;5085959;28;20024;-74
2021/10/15 10:34:53;;;;;;;4.20;2.03;;;10.50;94.80;;;;;;5082814;28;20055;-74
2021/10/15 10:37:20;;;;;;;4.22;2.13;;;10.50;94.70;;;;;;5081519;28;20039;-74
2021/10/15 10:39:47;;;;;;;6.90;2.38;;;10.70;95.60;;;;;;5082685;28;20104;-74
2021/10/15 10:42:24;;;;;;;3.55;1.63;;;11.00;95.40;;;;;;5084107;28;20031;-74
2021/10/15 10:44:49;;;;;;;4.53;1.98;;;11.10;94.70;;;;;;5084246;28;20032;-75
2021/10/15 10:47:19;;;;;;;9.52;2.20;;;11.10;94.30;;;;;;5084322;28;20031;-74
2021/10/15 10:50:09;;;;;;;5.70;2.25;;;11.20;94.80;;;;;;5082932;28;20055;-74
2021/10/15 10:52:47;;;;;;;6.35;2.15;;;11.50;95.60;;;;;;5083296;28;20016;-74
2021/10/15 10:55:33;;;;;;;3.55;1.77;;;11.40;93.80;;;;;;5083498;28;20055;-74
2021/10/15 10:57:59;;;;;;;4.55;2.08;;;11.50;93.80;;;;;;5082519;28;20039;-74
2021/10/15 11:00:29;;;;;;;5.25;2.20;;;11.60;94.10;;;;;;5084320;28;20420;-74
2021/10/15 11:02:57;;;;;;;4.15;1.98;;;11.60;94.00;;;;;;5085092;28;20023;-74
2021/10/15 11:05:42;;;;;;;4.47;2.03;;;11.70;93.30;;;;;;5085046;28;20188;-74
2021/10/15 11:08:25;;;;;;;4.35;2.38;;;11.80;93.30;;;;;;5085233;28;20024;-74
2021/10/15 11:10:52;;;;;;;9.30;1.95;;;11.90;93.50;;;;;;5085273;28;20040;-74
2021/10/15 11:13:32;;;;;;;3.53;1.90;;;12.30;93.10;;;;;;5085833;28;20035;-74
2021/10/15 11:15:58;;;;;;;4.85;1.60;;;12.30;93.00;;;;;;5084367;28;20640;-74
2021/10/15 11:18:24;;;;;;;6.22;1.60;;;12.30;93.20;;;;;;5084425;28;20049;-74
2021/10/15 11:20:51;;;;;;;2.92;1.52;;;12.50;92.50;;;;;;5084454;28;20095;-74
2021/10/15 11:23:17;;;;;;;3.53;1.67;;;12.70;92.80;;;;;;5085228;28;20028;-74
2021/10/15 11:25:47;;;;;;;4.75;1.88;;;12.60;92.40;;;;;;5084930;28;20024;-75
2021/10/15 11:28:18;;;;;;;4.97;2.20;;;12.50;92.30;;;;;;5087628;28;20020;-74
2021/10/15 11:30:52;;;;;;;3.97;1.67;;;12.70;92.20;;;;;;5088091;28;20051;-74
2021/10/15 11:33:21;;;;;;;4.10;1.60;;;12.70;92.10;;;;;;5088081;28;20119;-74
2021/10/15 11:35:50;;;;;;;5.78;1.75;;;12.60;91.30;;;;;;5087532;28;20028;-74
2021/10/15 11:38:20;;;;;;;4.60;1.90;;;13.00;91.60;;;;;;5081503;28;20032;-74
2021/10/15 11:40:57;;;;;;;6.15;1.83;;;13.00;91.70;;;;;;5066531;28;20066;-74
2021/10/15 11:43:25;;;;;;;4.53;1.80;;;12.90;91.90;;;;;;5086617;28;20028;-74
2021/10/15 11:46:01;;;;;;;7.15;1.88;;;13.10;92.10;;;;;;5087321;28;20024;-74
2021/10/15 11:48:29;;;;;;;3.95;1.90;;;13.30;91.90;;;;;;5087931;28;20023;-74
2021/10/15 11:50:59;;;;;;;5.10;2.20;;;13.40;91.60;;;;;;5085436;28;20028;-74
2021/10/15 11:53:32;;;;;;;4.75;2.28;;;13.80;91.20;;;;;;5087836;28;20031;-74
2021/10/15 11:56:01;;;;;;;5.50;1.52;;;13.70;91.20;;;;;;5087485;28;20027;-74
2021/10/15 11:58:34;;;;;;;5.07;1.52;;;13.60;91.30;;;;;;5087752;28;20456;-74
2021/10/15 12:01:27;;;;;;;3.47;1.52;;;13.40;91.10;;;;;;5087863;28;20028;-75
2021/10/15 12:03:59;;;;;;;4.35;2.08;;;13.40;90.60;;;;;;5088140;28;20153;-76
2021/10/15 12:06:27;;;;;;;4.05;1.60;;;13.60;91.30;;;;;;5086492;28;20022;-74
2021/10/15 12:08:56;;;;;;;3.05;1.55;;;13.70;91.00;;;;;;5053186;28;20570;-75
2021/10/15 12:11:41;;;;;;;4.22;2.00;;;13.60;91.20;;;;;;5042792;28;20029;-75
2021/10/15 12:14:14;;;;;;;4.90;1.58;;;13.60;91.10;;;;;;5024161;28;20032;-75
2021/10/15 12:16:42;;;;;;;5.75;1.70;;;13.50;90.20;;;;;;5024150;28;20041;-74
2021/10/15 12:19:21;;;;;;;3.38;1.90;;;13.60;91.80;;;;;;5024255;28;20108;-75
2021/10/15 12:21:59;;;;;;;3.38;1.30;;;14.00;91.40;;;;;;5024870;28;20483;-75
2021/10/15 12:24:39;;;;;;;2.88;1.48;;;13.90;90.30;;;;;;5024609;28;20026;-74
2021/10/15 12:27:11;;;;;;;3.78;1.65;;;13.90;90.40;;;;;;5033914;28;20039;-75
2021/10/15 12:29:59;;;;;;;6.85;2.20;;;14.10;90.60;;;;;;5044065;28;20107;-75
2021/10/15 12:32:32;;;;;;;5.97;2.33;;;14.10;90.50;;;;;;5044293;28;20021;-74
2021/10/15 12:35:03;;;;;;;2.95;1.50;;;14.10;90.50;;;;;;5043879;28;20033;-74
2021/10/15 12:37:39;;;;;;;3.78;1.50;;;14.10;90.50;;;;;;5042368;28;20032;-75
2021/10/15 12:40:18;;;;;;;3.15;1.40;;;14.10;90.30;;;;;;5034767;28;20035;-75
2021/10/15 12:42:48;;;;;;;3.83;1.98;;;14.10;90.10;;;;;;5043322;28;20036;-74
2021/10/15 12:45:15;;;;;;;2.47;1.23;;;14.40;90.30;;;;;;5040892;28;20021;-74
2021/10/15 12:47:53;;;;;;;3.90;1.58;;;14.40;88.50;;;;;;5042213;28;20108;-75
2021/10/15 12:50:19;;;;;;;3.78;1.98;;;14.30;88.80;;;;;;5041890;28;20068;-74
2021/10/15 12:52:45;;;;;;;4.50;1.38;;;14.30;89.90;;;;;;5042899;28;20021;-75
2021/10/15 12:55:21;;;;;;;3.45;1.38;;;14.20;90.00;;;;;;5042684;28;20029;-75
2021/10/15 12:57:50;;;;;;;4.07;1.42;;;14.20;90.10;;;;;;5042297;28;20052;-74
2021/10/15 13:00:23;;;;;;;3.40;1.38;;;14.50;89.40;;;;;;5043346;28;20021;-74
2021/10/15 13:03:02;;;;;;;7.15;1.38;;;14.60;90.10;;;;;;5036540;28;20017;-74
2021/10/15 13:05:28;;;;;;;2.70;1.58;;;14.80;89.70;;;;;;5042608;28;20024;-74
2021/10/15 13:07:54;;;;;;;8.85;1.55;;;15.00;89.60;;;;;;5045519;28;20029;-75
2021/10/15 13:10:22;;;;;;;9.68;1.70;;;14.70;88.50;;;;;;5084974;28;20043;-75
2021/10/15 13:12:50;;;;;;;2.85;1.23;;;14.70;89.20;;;;;;5084374;28;20031;-73